Time;durP1;ratioP1;P1;durP2;ratioP2;P2;SDS_P1;SDS_P2;PMS_P1;PMS_P2;Temp;Humidity;BMP_temperature;BMP_pressure;BME280_temperature;BME280_humidity;BME280_pressure;Samples;Min_cycle;Max_cycle;Signal;HPM_P1;HPM_P2
2024/04/10 00:01:43;;;;;;;2.40;1.83;;;10.50;98.00;;;;;;5416244;26;20627;-59
2024/04/10 00:04:09;;;;;;;3.20;2.33;;;10.50;98.20;;;;;;5417140;26;20446;-59
2024/04/10 00:06:37;;;;;;;5.47;2.10;;;10.50;98.50;;;;;;5416684;26;20563;-58
2024/04/10 00:09:03;;;;;;;3.80;2.50;;;10.50;98.80;;;;;;5416558;26;20573;-59
2024/04/10 00:11:31;;;;;;;7.23;2.60;;;10.40;98.90;;;;;;5416412;26;20473;-59
2024/04/10 00:14:00;;;;;;;4.80;3.17;;;10.50;99.10;;;;;;5416638;26;20468;-59
2024/04/10 00:16:28;;;;;;;4.03;2.30;;;10.50;99.20;;;;;;5416627;26;20581;-59
2024/04/10 00:18:54;;;;;;;2.83;1.97;;;10.50;99.10;;;;;;5416515;26;20513;-59
2024/04/10 00:21:23;;;;;;;3.70;2.27;;;10.40;99.30;;;;;;5416339;26;20457;-58
2024/04/10 00:23:49;;;;;;;3.87;2.70;;;10.40;99.40;;;;;;5416200;26;20575;-60
2024/04/10 00:26:18;;;;;;;3.60;2.30;;;10.40;99.40;;;;;;5416216;26;20859;-59
2024/04/10 00:28:44;;;;;;;5.47;2.57;;;10.40;99.50;;;;;;5417337;26;20493;-60
2024/04/10 00:31:15;;;;;;;4.27;3.00;;;10.40;99.50;;;;;;5419589;26;20456;-59
2024/04/10 00:33:41;;;;;;;2.93;2.33;;;10.40;99.60;;;;;;5419656;26;20250;-61
2024/04/10 00:36:10;;;;;;;10.43;3.10;;;10.40;99.70;;;;;;5419455;26;20460;-60
2024/04/10 00:38:36;;;;;;;5.33;2.50;;;10.40;99.80;;;;;;5419616;26;20497;-60
2024/04/10 00:41:05;;;;;;;4.03;2.70;;;10.40;99.80;;;;;;5419856;26;20445;-59
2024/04/10 00:43:32;;;;;;;6.90;2.80;;;10.40;99.80;;;;;;5420292;26;20312;-59
2024/04/10 00:46:04;;;;;;;9.30;2.93;;;10.40;99.90;;;;;;5419509;26;20452;-58
2024/04/10 00:48:32;;;;;;;3.60;2.63;;;10.40;99.90;;;;;;5419498;26;20994;-61
2024/04/10 00:51:01;;;;;;;3.10;2.00;;;10.40;99.90;;;;;;5420307;26;20452;-59
2024/04/10 00:53:27;;;;;;;4.90;2.57;;;10.30;99.90;;;;;;5420750;26;20528;-60
2024/04/10 00:55:56;;;;;;;6.87;2.43;;;10.30;99.90;;;;;;5419618;26;20457;-59
2024/04/10 00:58:22;;;;;;;6.63;2.70;;;10.30;99.90;;;;;;5419654;26;20520;-59
2024/04/10 01:00:53;;;;;;;8.40;2.67;;;10.30;99.90;;;;;;5419462;26;20609;-59
2024/04/10 01:03:18;;;;;;;6.17;3.13;;;10.30;99.90;;;;;;5419280;26;20516;-60
2024/04/10 01:05:58;;;;;;;7.27;3.40;;;10.30;99.90;;;;;;5419228;26;20526;-59
2024/04/10 01:08:24;;;;;;;7.27;2.90;;;10.30;99.90;;;;;;5420202;26;20449;-60
2024/04/10 01:10:52;;;;;;;4.87;3.10;;;10.30;99.90;;;;;;5419097;26;20500;-60
2024/04/10 01:13:19;;;;;;;7.17;3.20;;;10.20;99.90;;;;;;5419072;26;20589;-62
2024/04/10 01:15:48;;;;;;;4.93;3.27;;;10.20;99.90;;;;;;5419114;26;20563;-60
2024/04/10 01:18:14;;;;;;;5.17;3.20;;;10.20;99.90;;;;;;5419205;26;21049;-61
2024/04/10 01:20:42;;;;;;;7.33;3.10;;;10.20;99.90;;;;;;5419133;26;20559;-60
2024/04/10 01:23:10;;;;;;;7.23;3.03;;;10.20;99.90;;;;;;5418703;26;20275;-60
2024/04/10 01:25:39;;;;;;;7.67;3.50;;;10.20;99.90;;;;;;5419234;26;20441;-60
2024/04/10 01:28:05;;;;;;;5.53;3.80;;;10.20;99.90;;;;;;5418929;26;20806;-58
2024/04/10 01:30:33;;;;;;;8.10;3.90;;;10.10;99.90;;;;;;5418981;26;20456;-60
2024/04/10 01:32:59;;;;;;;5.40;2.70;;;10.10;99.90;;;;;;5421145;26;21057;-60
2024/04/10 01:35:27;;;;;;;4.50;3.27;;;10.10;99.90;;;;;;5422904;26;20548;-60
2024/04/10 01:37:53;;;;;;;8.67;3.80;;;10.10;99.90;;;;;;5422527;26;20271;-60
2024/04/10 01:40:25;;;;;;;5.07;3.07;;;10.10;99.90;;;;;;5419587;26;20809;-60
2024/04/10 01:42:51;;;;;;;5.63;4.20;;;10.00;99.90;;;;;;5420407;26;20533;-60
2024/04/10 01:45:19;;;;;;;11.80;4.60;;;10.00;99.90;;;;;;5420772;26;20776;-60
2024/04/10 01:47:45;;;;;;;8.20;3.03;;;10.00;99.90;;;;;;5420439;26;20234;-60
2024/04/10 01:50:13;;;;;;;8.07;4.03;;;10.00;99.90;;;;;;5421012;26;20571;-60
2024/04/10 01:52:39;;;;;;;10.70;4.30;;;9.90;99.90;;;;;;5421163;26;20274;-60
2024/04/10 01:55:09;;;;;;;10.33;3.90;;;9.90;99.90;;;;;;5421559;26;20570;-58
2024/04/10 01:57:38;;;;;;;7.40;3.10;;;9.90;99.90;;;;;;5420370;26;20216;-59
2024/04/10 02:00:07;;;;;;;6.10;3.55;;;9.90;99.90;;;;;;5420524;26;21034;-60
2024/04/10 02:02:33;;;;;;;7.73;4.07;;;9.90;99.90;;;;;;5447260;21;20335;-63
2024/04/10 02:05:02;;;;;;;8.03;3.10;;;9.90;99.90;;;;;;5432469;26;20540;-63
2024/04/10 02:07:27;;;;;;;7.43;3.60;;;9.90;99.90;;;;;;5432846;26;20453;-62
2024/04/10 02:09:56;;;;;;;6.27;4.13;;;9.90;99.90;;;;;;5431006;26;20566;-63
2024/04/10 02:12:22;;;;;;;9.45;3.60;;;9.90;99.90;;;;;;5426920;26;20259;-62
2024/04/10 02:14:53;;;;;;;6.60;3.23;;;9.90;99.90;;;;;;5423882;26;20304;-62
2024/04/10 02:17:18;;;;;;;7.30;2.93;;;9.90;99.90;;;;;;5421172;26;20493;-62
2024/04/10 02:19:47;;;;;;;9.13;3.10;;;10.00;99.90;;;;;;5420491;26;20963;-62
2024/04/10 02:22:13;;;;;;;7.00;2.73;;;10.00;99.90;;;;;;5419970;26;20638;-63
2024/04/10 02:24:41;;;;;;;9.23;2.80;;;10.00;99.90;;;;;;5420225;26;20449;-62
2024/04/10 02:27:07;;;;;;;8.63;3.07;;;10.00;99.90;;;;;;5420007;26;20219;-64
2024/04/10 02:29:35;;;;;;;6.63;2.73;;;10.10;99.90;;;;;;5419901;26;20575;-60
2024/04/10 02:32:04;;;;;;;7.30;3.00;;;10.10;99.90;;;;;;5420122;26;20316;-62
2024/04/10 02:34:34;;;;;;;8.13;3.23;;;10.10;99.90;;;;;;5419983;26;20497;-62
2024/04/10 02:37:00;;;;;;;10.60;3.27;;;10.10;99.90;;;;;;5419272;26;20853;-62
2024/04/10 02:39:28;;;;;;;6.00;3.20;;;10.10;99.90;;;;;;5419589;26;20457;-62
2024/04/10 02:41:54;;;;;;;7.73;3.10;;;10.10;99.90;;;;;;5423501;26;20218;-62
2024/04/10 02:44:22;;;;;;;6.53;3.00;;;10.20;99.90;;;;;;5427437;26;20544;-62
2024/04/10 02:46:48;;;;;;;9.67;3.07;;;10.10;99.90;;;;;;5428605;26;20255;-62
2024/04/10 02:49:19;;;;;;;6.13;3.13;;;10.10;99.90;;;;;;5429095;26;20448;-62
2024/04/10 02:51:45;;;;;;;5.47;3.00;;;10.10;99.90;;;;;;5426028;26;20477;-63
2024/04/10 02:54:13;;;;;;;6.10;2.73;;;10.10;99.90;;;;;;5424661;26;20591;-62
2024/04/10 02:56:39;;;;;;;8.20;3.20;;;10.00;99.90;;;;;;5423644;26;20512;-62
2024/04/10 02:59:08;;;;;;;4.70;2.50;;;10.00;99.90;;;;;;5424923;26;20532;-62
2024/04/10 03:01:34;;;;;;;7.80;3.17;;;10.00;99.90;;;;;;5421288;26;20215;-62
2024/04/10 03:04:03;;;;;;;5.23;3.37;;;9.90;99.90;;;;;;5419695;26;20964;-63
2024/04/10 03:06:32;;;;;;;4.83;3.00;;;9.90;99.90;;;;;;5419745;26;20516;-62
2024/04/10 03:09:00;;;;;;;10.87;3.53;;;9.90;99.90;;;;;;5420066;26;20456;-62
2024/04/10 03:11:26;;;;;;;10.60;3.93;;;9.90;99.90;;;;;;5420548;26;20449;-62
2024/04/10 03:13:55;;;;;;;5.77;2.60;;;9.90;99.90;;;;;;5420095;26;20469;-63
2024/04/10 03:16:21;;;;;;;7.13;2.53;;;9.80;99.90;;;;;;5425592;26;20223;-62
2024/04/10 03:18:49;;;;;;;11.50;3.77;;;9.80;99.90;;;;;;5427940;26;20504;-61
2024/04/10 03:21:15;;;;;;;12.80;3.67;;;9.80;99.90;;;;;;5429679;26;20219;-62
2024/04/10 03:23:46;;;;;;;7.97;3.57;;;9.80;99.90;;;;;;5428506;26;20548;-62
2024/04/10 03:26:13;;;;;;;11.90;4.10;;;9.80;99.90;;;;;;5425335;26;20647;-62
2024/04/10 03:28:42;;;;;;;10.10;3.50;;;9.80;99.90;;;;;;5424551;26;20501;-62
2024/04/10 03:31:08;;;;;;;10.32;3.45;;;9.80;99.90;;;;;;5424814;26;20465;-62
2024/04/10 03:33:36;;;;;;;7.10;3.53;;;9.80;99.90;;;;;;5423319;26;20228;-62
2024/04/10 03:36:04;;;;;;;9.73;3.17;;;9.80;99.90;;;;;;5423477;26;20254;-62
2024/04/10 03:38:32;;;;;;;5.63;3.13;;;9.80;99.90;;;;;;5424840;26;20558;-62
2024/04/10 03:41:00;;;;;;;9.00;4.90;;;9.80;99.90;;;;;;5426384;26;20589;-60
2024/04/10 03:43:29;;;;;;;12.77;3.80;;;9.80;99.90;;;;;;5424786;26;20543;-61
2024/04/10 03:45:58;;;;;;;5.40;2.73;;;9.80;99.90;;;;;;5429341;26;20548;-62
2024/04/10 03:48:26;;;;;;;8.90;3.63;;;9.80;99.90;;;;;;5429296;26;20457;-62
2024/04/10 03:51:01;;;;;;;8.63;3.27;;;9.80;99.90;;;;;;5430270;26;20543;-61
2024/04/10 03:53:27;;;;;;;9.00;3.20;;;9.80;99.90;;;;;;5429873;26;20448;-62
2024/04/10 03:55:56;;;;;;;9.70;3.80;;;9.90;99.90;;;;;;5429551;26;20469;-63
2024/04/10 03:58:24;;;;;;;12.93;3.50;;;9.90;99.90;;;;;;5429073;26;20544;-62
2024/04/10 04:00:53;;;;;;;16.27;3.77;;;9.90;99.90;;;;;;5420556;26;20509;-62
2024/04/10 04:03:19;;;;;;;5.20;3.97;;;9.90;99.90;;;;;;5420582;26;20505;-63
2024/04/10 04:05:47;;;;;;;11.67;3.63;;;9.90;99.90;;;;;;5420619;26;20828;-63
2024/04/10 04:08:13;;;;;;;7.77;3.83;;;9.90;99.90;;;;;;5419506;26;20271;-62
2024/04/10 04:15:19;;;;;;;12.50;3.83;;;9.90;99.90;;;;;;5549765;25;20579;-63
2024/04/10 04:17:45;;;;;;;14.10;4.17;;;9.90;99.90;;;;;;5550407;25;20459;-62
2024/04/10 04:20:14;;;;;;;9.67;4.27;;;9.90;99.90;;;;;;5556499;25;20909;-62
2024/04/10 04:22:39;;;;;;;7.77;3.47;;;9.90;99.90;;;;;;5547121;25;20465;-62
2024/04/10 04:25:08;;;;;;;9.77;3.80;;;9.90;99.90;;;;;;5524088;26;20571;-62
2024/04/10 04:27:34;;;;;;;8.83;2.80;;;9.90;99.90;;;;;;5520865;26;20239;-63
2024/04/10 04:30:03;;;;;;;6.93;3.10;;;9.90;99.90;;;;;;5518391;26;20445;-62
2024/04/10 04:32:32;;;;;;;11.23;3.23;;;9.90;99.90;;;;;;5515180;26;20569;-62
2024/04/10 04:35:01;;;;;;;11.30;3.80;;;9.90;99.90;;;;;;5512958;26;20449;-63
2024/04/10 04:37:26;;;;;;;12.47;3.03;;;9.80;99.90;;;;;;5512334;26;20509;-62
2024/04/10 04:39:55;;;;;;;6.80;2.97;;;9.80;99.90;;;;;;5511572;26;20967;-61
2024/04/10 04:42:21;;;;;;;8.93;3.10;;;9.80;99.90;;;;;;5512228;25;20312;-61
2024/04/10 04:44:49;;;;;;;16.97;3.30;;;9.80;99.90;;;;;;5510899;26;20979;-61
2024/04/10 04:47:15;;;;;;;8.47;3.57;;;9.70;99.90;;;;;;5510490;26;20508;-62
2024/04/10 04:49:46;;;;;;;5.43;3.23;;;9.70;99.90;;;;;;5510176;26;20462;-62
2024/04/10 04:52:12;;;;;;;8.77;3.20;;;9.70;99.90;;;;;;5511062;26;20517;-62
2024/04/10 04:54:41;;;;;;;9.20;3.23;;;9.60;99.90;;;;;;5510593;26;20583;-61
2024/04/10 04:57:09;;;;;;;8.13;3.40;;;9.60;99.90;;;;;;5510701;26;20210;-61
2024/04/10 04:59:37;;;;;;;8.60;3.50;;;9.60;99.90;;;;;;5510981;26;20558;-62
2024/04/10 05:02:03;;;;;;;6.47;2.80;;;9.50;99.90;;;;;;5511988;25;20502;-60
2024/04/10 05:07:19;;;;;;;8.47;2.90;;;9.60;99.90;;;;;;5516681;26;20414;-61
2024/04/10 05:09:48;;;;;;;3.97;2.57;;;9.60;99.90;;;;;;5514486;26;20487;-59
2024/04/10 05:12:16;;;;;;;10.47;3.00;;;9.60;99.90;;;;;;5510837;25;20563;-60
2024/04/10 05:14:47;;;;;;;12.53;2.50;;;9.60;99.90;;;;;;5518137;26;20465;-60
2024/04/10 05:17:16;;;;;;;12.20;3.00;;;9.70;99.90;;;;;;5517679;26;20441;-60
2024/04/10 05:19:42;;;;;;;6.90;2.77;;;9.70;99.90;;;;;;5511303;26;20445;-61
2024/04/10 05:22:10;;;;;;;12.03;3.23;;;9.70;99.90;;;;;;5512424;25;20502;-62
2024/04/10 05:24:39;;;;;;;5.90;3.40;;;9.70;99.90;;;;;;5511253;26;20438;-61
2024/04/10 05:27:08;;;;;;;4.90;2.37;;;9.80;99.90;;;;;;5504091;26;20445;-59
2024/04/10 05:29:34;;;;;;;5.00;3.00;;;9.80;99.90;;;;;;5500269;26;20434;-61
2024/04/10 05:32:02;;;;;;;11.40;3.50;;;9.80;99.90;;;;;;5500566;26;21006;-60
2024/04/10 05:34:28;;;;;;;6.90;3.10;;;9.90;99.90;;;;;;5498815;26;20870;-61
2024/04/10 05:36:57;;;;;;;7.37;3.33;;;9.90;99.90;;;;;;5497557;26;20486;-60
2024/04/10 05:39:24;;;;;;;8.67;3.30;;;9.90;99.90;;;;;;5496334;26;20228;-60
2024/04/10 05:41:55;;;;;;;7.13;3.43;;;9.90;99.90;;;;;;5495499;26;20449;-62
2024/04/10 05:44:21;;;;;;;6.20;3.23;;;10.00;99.90;;;;;;5494510;26;20453;-61
2024/04/10 05:46:50;;;;;;;12.07;4.50;;;10.00;99.90;;;;;;5494719;26;20509;-62
2024/04/10 05:49:18;;;;;;;8.10;3.37;;;10.00;99.90;;;;;;5494635;26;20929;-62
2024/04/10 05:51:44;;;;;;;11.07;3.60;;;10.00;99.90;;;;;;5495374;26;21122;-60
2024/04/10 05:54:12;;;;;;;10.33;3.97;;;10.10;99.90;;;;;;5495371;26;20469;-61
2024/04/10 05:56:38;;;;;;;10.70;4.00;;;10.10;99.90;;;;;;5495436;26;20566;-61
2024/04/10 05:59:09;;;;;;;10.33;3.50;;;10.10;99.90;;;;;;5495273;26;20450;-61
2024/04/10 06:01:35;;;;;;;6.47;3.77;;;10.20;99.90;;;;;;5495336;26;20481;-60
2024/04/10 06:04:04;;;;;;;7.90;3.43;;;10.20;99.90;;;;;;5493938;26;20517;-60
2024/04/10 06:06:29;;;;;;;11.70;4.40;;;10.30;99.90;;;;;;5495026;26;20233;-61
2024/04/10 06:08:58;;;;;;;11.03;3.63;;;10.40;99.90;;;;;;5494093;26;20566;-60
2024/04/10 06:11:27;;;;;;;16.23;3.33;;;10.50;99.90;;;;;;5493499;26;20354;-61
2024/04/10 06:13:57;;;;;;;8.33;3.90;;;10.60;99.90;;;;;;5493323;26;20863;-62
2024/04/10 06:16:25;;;;;;;7.10;3.70;;;10.70;99.90;;;;;;5493335;26;20783;-59
2024/04/10 06:18:55;;;;;;;5.37;3.03;;;10.70;99.90;;;;;;5493020;26;20499;-59
2024/04/10 06:21:21;;;;;;;8.00;3.03;;;10.80;99.90;;;;;;5493206;26;20461;-61
2024/04/10 06:23:50;;;;;;;6.60;3.20;;;10.90;99.90;;;;;;5493136;26;20462;-62
2024/04/10 06:26:15;;;;;;;8.40;3.40;;;11.00;99.90;;;;;;5493328;26;20559;-61
2024/04/10 06:28:44;;;;;;;6.30;3.23;;;11.10;99.90;;;;;;5491844;26;20466;-60
2024/04/10 06:31:10;;;;;;;13.77;3.27;;;11.10;99.90;;;;;;5492723;26;20402;-61
2024/04/10 06:33:41;;;;;;;8.13;2.60;;;11.20;99.90;;;;;;5491255;26;20829;-61
2024/04/10 06:36:08;;;;;;;6.70;2.57;;;11.30;99.90;;;;;;5491430;26;20453;-61
2024/04/10 06:38:38;;;;;;;9.50;2.87;;;11.30;99.90;;;;;;5490992;26;20454;-61
2024/04/10 06:41:04;;;;;;;4.00;2.47;;;11.40;99.90;;;;;;5491445;26;20446;-62
2024/04/10 06:43:32;;;;;;;11.60;2.90;;;11.50;99.90;;;;;;5491873;26;20516;-62
2024/04/10 06:46:00;;;;;;;7.90;2.27;;;11.40;99.90;;;;;;5492828;26;20537;-61
2024/04/10 06:48:28;;;;;;;7.00;2.30;;;11.30;99.90;;;;;;5495121;26;20502;-62
2024/04/10 06:51:00;;;;;;;8.47;2.40;;;11.30;99.90;;;;;;5493008;26;20627;-61
2024/04/10 06:53:29;;;;;;;6.30;2.47;;;11.20;99.90;;;;;;5491680;26;20474;-61
2024/04/10 06:55:56;;;;;;;5.67;2.00;;;11.10;99.90;;;;;;5491558;26;20446;-61
2024/04/10 06:58:25;;;;;;;6.23;2.87;;;11.10;99.90;;;;;;5491607;26;20991;-61
2024/04/10 07:00:56;;;;;;;5.80;2.40;;;11.10;99.90;;;;;;5490996;26;20473;-62
2024/04/10 07:03:25;;;;;;;5.00;2.30;;;11.20;99.90;;;;;;5491215;26;20535;-61
2024/04/10 07:05:50;;;;;;;5.53;2.43;;;11.30;99.90;;;;;;5491164;26;20505;-61
2024/04/10 07:08:21;;;;;;;5.67;2.60;;;11.40;99.90;;;;;;5491204;26;20789;-61
2024/04/10 07:10:53;;;;;;;5.93;2.67;;;11.60;99.90;;;;;;5491841;26;20593;-61
2024/04/10 07:13:22;;;;;;;6.63;2.50;;;11.60;99.90;;;;;;5491801;26;21085;-62
2024/04/10 07:15:56;;;;;;;4.13;2.20;;;11.60;99.90;;;;;;5491980;26;21089;-62
2024/04/10 07:18:25;;;;;;;3.77;2.03;;;11.50;99.90;;;;;;5491988;26;20398;-62
2024/04/10 07:20:58;;;;;;;8.00;2.83;;;11.50;99.90;;;;;;5491065;26;20515;-61
2024/04/10 07:23:29;;;;;;;4.47;2.20;;;11.50;99.90;;;;;;5492307;26;20546;-61
2024/04/10 07:26:05;;;;;;;6.10;2.63;;;11.50;99.90;;;;;;5493872;26;20499;-61
2024/04/10 07:28:34;;;;;;;8.30;2.37;;;11.50;99.90;;;;;;5493981;26;20458;-61
2024/04/10 07:30:59;;;;;;;6.30;2.40;;;11.60;99.90;;;;;;5491222;26;20484;-61
2024/04/10 07:33:28;;;;;;;6.30;2.40;;;11.60;99.90;;;;;;5491657;26;20485;-61
2024/04/10 07:35:54;;;;;;;5.47;2.60;;;11.70;99.90;;;;;;5491137;26;20598;-61
2024/04/10 07:38:22;;;;;;;8.70;2.13;;;11.70;99.90;;;;;;5490881;26;20571;-62
2024/04/10 07:40:57;;;;;;;7.90;2.80;;;11.80;99.90;;;;;;5490982;26;20248;-62
2024/04/10 07:43:25;;;;;;;5.80;2.50;;;11.80;99.90;;;;;;5490520;26;20533;-61
2024/04/10 07:45:51;;;;;;;4.10;2.20;;;11.80;99.90;;;;;;5490184;26;20502;-61
2024/04/10 07:48:19;;;;;;;4.00;2.60;;;11.70;99.90;;;;;;5490060;26;20879;-61
2024/04/10 07:50:45;;;;;;;9.60;3.10;;;11.60;99.90;;;;;;5490515;26;20235;-61
2024/04/10 07:53:14;;;;;;;10.67;3.03;;;11.70;99.90;;;;;;5490411;26;20470;-61
2024/04/10 07:55:40;;;;;;;4.10;2.60;;;11.80;99.90;;;;;;5490283;26;20779;-61
2024/04/10 07:58:11;;;;;;;7.33;2.70;;;12.00;99.60;;;;;;5489953;26;20462;-62
2024/04/10 08:00:36;;;;;;;4.80;2.60;;;12.10;99.60;;;;;;5489328;26;20447;-61
2024/04/10 08:03:05;;;;;;;3.87;2.23;;;12.30;99.00;;;;;;5489874;26;20852;-62
2024/04/10 08:05:31;;;;;;;4.17;2.30;;;12.30;98.20;;;;;;5490187;26;20268;-62
2024/04/10 08:08:00;;;;;;;5.53;2.20;;;12.50;97.60;;;;;;5490036;26;20497;-61
2024/04/10 08:10:26;;;;;;;3.83;2.50;;;12.60;97.00;;;;;;5489840;26;20454;-61
2024/04/10 08:12:55;;;;;;;6.33;2.40;;;12.70;96.70;;;;;;5489929;26;20525;-62
2024/04/10 08:15:24;;;;;;;4.43;2.00;;;12.90;95.40;;;;;;5490649;26;20573;-61
2024/04/10 08:17:53;;;;;;;6.80;2.53;;;12.80;94.20;;;;;;5490701;26;20518;-60
2024/04/10 08:20:18;;;;;;;6.07;2.20;;;12.70;94.10;;;;;;5490764;26;20563;-60
2024/04/10 08:22:47;;;;;;;4.77;2.00;;;12.60;94.30;;;;;;5490204;26;20474;-60
2024/04/10 08:25:13;;;;;;;6.13;2.03;;;12.60;94.10;;;;;;5490760;26;20802;-61
2024/04/10 08:27:41;;;;;;;6.30;2.23;;;12.50;93.80;;;;;;5490205;26;20442;-60
2024/04/10 08:30:08;;;;;;;3.40;1.90;;;12.40;93.00;;;;;;5489821;26;20505;-60
2024/04/10 08:32:39;;;;;;;5.40;2.00;;;12.20;93.00;;;;;;5489985;26;20521;-61
2024/04/10 08:35:05;;;;;;;7.07;2.87;;;12.20;93.70;;;;;;5489746;26;20486;-61
2024/04/10 08:37:33;;;;;;;4.60;2.03;;;12.30;94.20;;;;;;5490598;26;20518;-62
2024/04/10 08:39:59;;;;;;;8.93;2.87;;;12.40;94.10;;;;;;5490911;26;20628;-62
2024/04/10 08:42:30;;;;;;;6.70;2.70;;;12.50;94.10;;;;;;5491619;26;20470;-62
2024/04/10 08:44:58;;;;;;;3.23;2.13;;;12.70;94.00;;;;;;5492124;26;20224;-62
2024/04/10 08:47:28;;;;;;;9.20;2.40;;;12.80;93.00;;;;;;5492243;26;20991;-60
2024/04/10 08:49:59;;;;;;;3.80;1.60;;;12.90;92.40;;;;;;5492006;26;20505;-61
2024/04/10 08:52:30;;;;;;;3.80;2.10;;;13.00;91.30;;;;;;5491775;26;20586;-61
2024/04/10 08:54:56;;;;;;;10.83;2.40;;;13.00;90.50;;;;;;5490925;26;20908;-61
2024/04/10 08:57:24;;;;;;;2.27;1.70;;;13.10;90.70;;;;;;5489939;26;20560;-61
2024/04/10 08:59:50;;;;;;;6.00;1.97;;;13.30;88.40;;;;;;5490293;26;20560;-61
2024/04/10 09:02:19;;;;;;;1.60;1.50;;;13.30;83.60;;;;;;5494569;26;20874;-61
2024/04/10 09:04:45;;;;;;;3.27;2.10;;;13.10;81.50;;;;;;5494413;26;20217;-62
2024/04/10 09:07:20;;;;;;;3.13;1.90;;;13.00;81.80;;;;;;5494384;26;20983;-61
2024/04/10 09:09:49;;;;;;;6.03;2.07;;;12.80;83.10;;;;;;5495549;26;20520;-62
2024/04/10 09:12:24;;;;;;;4.47;2.40;;;12.70;84.50;;;;;;5500246;26;20466;-61
2024/04/10 09:14:50;;;;;;;5.17;1.90;;;12.70;86.00;;;;;;5500634;26;20566;-62
2024/04/10 09:17:20;;;;;;;6.43;2.10;;;13.00;86.70;;;;;;5498325;26;20462;-60
2024/04/10 09:19:46;;;;;;;4.23;2.10;;;13.20;85.70;;;;;;5495271;26;20239;-61
2024/04/10 09:22:17;;;;;;;3.20;1.83;;;13.50;84.00;;;;;;5496475;26;20470;-61
2024/04/10 09:24:43;;;;;;;6.23;2.20;;;13.60;82.70;;;;;;5498270;26;20220;-61
2024/04/10 09:27:12;;;;;;;2.40;2.07;;;13.50;81.30;;;;;;5497408;26;20567;-61
2024/04/10 09:29:38;;;;;;;3.50;1.53;;;13.40;81.10;;;;;;5496685;26;20498;-61
2024/04/10 09:32:10;;;;;;;4.10;1.90;;;13.50;80.40;;;;;;5495171;26;20446;-60
2024/04/10 09:34:36;;;;;;;7.30;2.07;;;13.50;79.50;;;;;;5495942;26;20205;-59
2024/04/10 09:37:05;;;;;;;4.60;1.87;;;13.50;79.70;;;;;;5497170;26;20505;-60
2024/04/10 09:39:34;;;;;;;3.77;1.93;;;13.60;79.50;;;;;;5499352;26;20449;-61
2024/04/10 09:42:06;;;;;;;7.13;2.20;;;13.70;77.00;;;;;;5498535;26;20502;-61
2024/04/10 09:44:32;;;;;;;6.33;2.10;;;13.80;76.30;;;;;;5498014;26;20529;-61
2024/04/10 09:47:02;;;;;;;5.20;1.70;;;13.90;75.40;;;;;;5496848;26;20497;-61
2024/04/10 09:49:33;;;;;;;5.17;1.93;;;14.00;74.60;;;;;;5496955;26;20446;-62
2024/04/10 09:52:03;;;;;;;6.67;1.80;;;14.00;73.70;;;;;;5497493;26;20442;-62
2024/04/10 09:54:34;;;;;;;5.83;1.80;;;14.00;72.70;;;;;;5493944;26;20984;-62
2024/04/10 09:57:02;;;;;;;5.13;1.70;;;14.10;72.30;;;;;;5495137;26;20446;-61
2024/04/10 09:59:29;;;;;;;4.13;1.57;;;14.30;71.50;;;;;;5495025;26;20583;-62
2024/04/10 10:02:09;;;;;;;7.23;1.67;;;14.60;69.80;;;;;;5495186;26;20506;-62
2024/04/10 10:04:38;;;;;;;4.20;1.70;;;14.80;67.50;;;;;;5494396;26;21083;-62
2024/04/10 10:07:07;;;;;;;3.77;1.80;;;14.80;66.50;;;;;;5495553;26;20498;-60
2024/04/10 10:09:35;;;;;;;5.17;1.70;;;14.90;66.00;;;;;;5494386;26;20454;-59
2024/04/10 10:12:04;;;;;;;4.70;1.97;;;14.90;63.90;;;;;;5493725;26;20517;-62
2024/04/10 10:14:30;;;;;;;4.83;1.90;;;14.80;62.70;;;;;;5493523;26;20458;-60
2024/04/10 10:17:08;;;;;;;3.33;1.67;;;14.70;62.30;;;;;;5493324;26;20446;-62
2024/04/10 10:19:34;;;;;;;3.57;1.70;;;14.50;62.90;;;;;;5493518;26;20525;-67
2024/04/10 10:22:03;;;;;;;4.77;2.17;;;14.50;63.40;;;;;;5493049;26;20495;-61
2024/04/10 10:24:29;;;;;;;5.70;2.10;;;14.50;63.40;;;;;;5493695;26;20585;-62
2024/04/10 10:27:04;;;;;;;5.27;1.70;;;14.50;63.50;;;;;;5492987;26;20517;-63
2024/04/10 10:29:31;;;;;;;5.33;1.93;;;14.30;63.60;;;;;;5493895;26;20446;-60
2024/04/10 10:32:05;;;;;;;7.80;2.30;;;14.20;63.80;;;;;;5493401;26;20442;-61
2024/04/10 10:34:32;;;;;;;5.03;2.03;;;14.20;64.40;;;;;;5493402;26;20855;-62
2024/04/10 10:37:06;;;;;;;3.93;1.70;;;14.30;64.20;;;;;;5493886;26;20449;-62
2024/04/10 10:39:32;;;;;;;2.97;1.90;;;14.50;63.60;;;;;;5492976;26;20453;-61
2024/04/10 10:42:07;;;;;;;4.27;2.23;;;14.70;62.90;;;;;;5492435;26;20573;-62
2024/04/10 10:44:33;;;;;;;6.73;2.27;;;14.60;62.20;;;;;;5493282;26;20450;-60
2024/04/10 10:47:02;;;;;;;3.17;1.60;;;14.50;62.10;;;;;;5492134;26;20799;-61
2024/04/10 10:49:28;;;;;;;2.67;1.53;;;14.50;61.80;;;;;;5493217;26;20517;-62
2024/04/10 10:51:57;;;;;;;3.40;2.20;;;14.30;61.00;;;;;;5492658;26;20568;-61
2024/04/10 10:54:23;;;;;;;4.87;2.57;;;14.10;61.00;;;;;;5492614;26;20330;-61
2024/04/10 10:56:52;;;;;;;2.23;1.30;;;13.90;61.00;;;;;;5492466;26;20514;-61
2024/04/10 10:59:25;;;;;;;4.10;1.70;;;13.90;61.80;;;;;;5493073;26;20490;-62
2024/04/10 11:01:53;;;;;;;5.70;2.33;;;14.10;61.60;;;;;;5493255;26;20454;-64
2024/04/10 11:04:20;;;;;;;4.17;1.80;;;14.20;60.90;;;;;;5494606;26;20453;-61
2024/04/10 11:06:49;;;;;;;2.37;1.57;;;14.30;60.40;;;;;;5495789;26;20491;-61
2024/04/10 11:09:15;;;;;;;6.93;1.60;;;14.40;60.30;;;;;;5493579;26;20442;-61
2024/04/10 11:11:44;;;;;;;1.60;1.13;;;14.40;59.70;;;;;;5492328;26;20458;-59
2024/04/10 11:14:13;;;;;;;3.13;1.40;;;14.60;59.60;;;;;;5492080;26;20454;-61
2024/04/10 11:16:44;;;;;;;3.17;1.40;;;14.70;59.30;;;;;;5492824;26;20502;-61
2024/04/10 11:19:10;;;;;;;5.57;1.63;;;15.00;58.50;;;;;;5493393;26;20458;-63
2024/04/10 11:21:39;;;;;;;3.93;1.70;;;15.10;57.90;;;;;;5492804;26;20510;-63
2024/04/10 11:24:05;;;;;;;3.20;1.73;;;15.20;57.20;;;;;;5492318;26;20510;-62
2024/04/10 11:26:33;;;;;;;2.63;1.43;;;15.10;56.40;;;;;;5499299;26;20503;-62
2024/04/10 11:28:59;;;;;;;6.27;1.60;;;15.00;56.40;;;;;;5501631;26;20535;-61
2024/04/10 11:31:28;;;;;;;5.33;2.10;;;15.00;56.60;;;;;;5501456;26;20442;-63
2024/04/10 11:33:56;;;;;;;3.30;1.67;;;15.00;55.90;;;;;;5502554;26;20576;-62
2024/04/10 11:36:25;;;;;;;2.47;1.20;;;15.00;55.50;;;;;;5500234;26;20510;-63
2024/04/10 11:38:51;;;;;;;5.17;1.60;;;15.00;55.30;;;;;;5501710;26;20551;-62
2024/04/10 11:41:19;;;;;;;4.40;1.57;;;15.00;55.30;;;;;;5499755;26;20458;-63
2024/04/10 11:43:45;;;;;;;2.03;1.20;;;15.20;55.50;;;;;;5498166;26;20908;-62
2024/04/10 11:46:13;;;;;;;3.23;1.40;;;15.50;55.00;;;;;;5498337;26;20454;-62
2024/04/10 11:48:40;;;;;;;2.60;1.30;;;15.60;54.60;;;;;;5499838;26;20248;-62
2024/04/10 11:51:11;;;;;;;5.40;1.70;;;15.60;54.70;;;;;;5500220;26;21007;-61
2024/04/10 11:53:37;;;;;;;3.77;1.30;;;15.50;54.40;;;;;;5500872;26;20481;-61
2024/04/10 11:56:06;;;;;;;3.60;1.63;;;15.50;54.20;;;;;;5500578;26;20496;-62
2024/04/10 11:58:32;;;;;;;4.63;1.50;;;15.70;53.90;;;;;;5502475;26;20458;-62
2024/04/10 12:01:00;;;;;;;2.90;1.27;;;15.80;53.50;;;;;;5501626;26;20563;-62
2024/04/10 12:03:26;;;;;;;4.63;1.70;;;15.70;53.30;;;;;;5498850;26;20616;-61
2024/04/10 12:05:56;;;;;;;3.73;1.97;;;15.50;53.40;;;;;;5493970;26;20450;-61
2024/04/10 12:08:26;;;;;;;8.67;1.90;;;15.40;53.90;;;;;;5496629;26;20442;-61
2024/04/10 12:10:54;;;;;;;6.40;1.40;;;15.40;54.30;;;;;;5494720;26;20450;-60
2024/04/10 12:13:23;;;;;;;3.30;1.70;;;15.40;54.30;;;;;;5492318;26;20605;-61
2024/04/10 12:15:49;;;;;;;7.17;2.63;;;15.50;54.30;;;;;;5491868;26;20454;-61
2024/04/10 12:18:18;;;;;;;3.80;1.63;;;15.50;54.20;;;;;;5491750;26;20454;-61
2024/04/10 12:20:43;;;;;;;3.13;1.80;;;15.50;54.30;;;;;;5491384;26;20214;-61
2024/04/10 12:23:12;;;;;;;3.60;1.40;;;15.50;54.40;;;;;;5491140;26;20604;-61
2024/04/10 12:25:40;;;;;;;3.20;1.60;;;15.60;54.70;;;;;;5491615;26;20217;-60
2024/04/10 12:28:09;;;;;;;7.40;1.67;;;15.90;54.40;;;;;;5490777;26;20990;-61
2024/04/10 12:30:36;;;;;;;3.77;2.00;;;16.20;53.30;;;;;;5490984;26;20493;-61
2024/04/10 12:33:04;;;;;;;5.40;1.93;;;16.50;52.30;;;;;;5490509;26;20513;-62
2024/04/10 12:38:17;;;;;;;2.80;1.27;;;16.90;50.60;;;;;;5498483;26;20513;-62
2024/04/10 12:40:55;;;;;;;2.47;1.10;;;16.90;50.10;;;;;;5495064;26;21019;-60
2024/04/10 12:43:21;;;;;;;2.60;1.77;;;16.60;50.00;;;;;;5494947;26;20562;-60
2024/04/10 12:45:49;;;;;;;4.40;1.40;;;16.50;49.90;;;;;;5494761;26;20457;-62
2024/04/10 12:48:15;;;;;;;5.03;1.90;;;16.20;49.80;;;;;;5495524;26;20442;-62
2024/04/10 12:50:44;;;;;;;4.33;1.60;;;16.10;50.30;;;;;;5496344;26;21024;-61
2024/04/10 12:53:09;;;;;;;9.03;2.53;;;15.90;50.60;;;;;;5494618;26;20462;-62
2024/04/10 12:55:39;;;;;;;4.07;1.70;;;15.80;51.30;;;;;;5494088;26;20458;-61
2024/04/10 12:58:11;;;;;;;3.77;2.17;;;15.80;51.60;;;;;;5494171;26;20243;-61
2024/04/10 13:00:40;;;;;;;4.80;2.10;;;15.90;51.70;;;;;;5493904;26;20450;-61
2024/04/10 13:03:07;;;;;;;5.43;1.97;;;16.00;51.90;;;;;;5493815;26;20569;-61